createdAt,value
2018-09-10T00:01:58.441Z,1.77
2018-09-10T00:04:26.024Z,1.70
2018-09-10T00:06:53.608Z,1.60
2018-09-10T00:09:21.137Z,1.70
2018-09-10T00:11:48.708Z,1.60
2018-09-10T00:14:16.440Z,1.80
2018-09-10T00:16:44.014Z,1.70
2018-09-10T00:19:11.531Z,1.83
2018-09-10T00:21:39.081Z,1.50
2018-09-10T00:24:06.845Z,1.63
2018-09-10T00:26:41.115Z,1.70
2018-09-10T00:29:08.685Z,1.60
2018-09-10T00:31:36.267Z,1.80
2018-09-10T00:34:03.858Z,1.80
2018-09-10T00:36:31.377Z,1.42
2018-09-10T00:38:58.918Z,1.70
2018-09-10T00:43:57.212Z,1.53
2018-09-10T00:46:24.801Z,1.80
2018-09-10T00:48:52.353Z,1.50
2018-09-10T00:51:19.929Z,1.40
2018-09-10T00:53:47.527Z,1.60
2018-09-10T00:56:15.286Z,1.50
2018-09-10T00:58:42.866Z,1.60
2018-09-10T01:01:10.401Z,1.60
2018-09-10T01:03:37.955Z,1.63
2018-09-10T01:06:05.707Z,1.53
2018-09-10T01:08:38.105Z,1.50
2018-09-10T01:11:05.858Z,1.70
2018-09-10T01:13:33.461Z,1.77
2018-09-10T01:16:00.985Z,1.60
2018-09-10T01:18:28.572Z,1.70
2018-09-10T01:20:56.349Z,1.37
2018-09-10T01:23:24.103Z,1.57
2018-09-10T01:25:51.648Z,1.50
2018-09-10T01:28:19.207Z,1.50
2018-09-10T01:30:46.805Z,1.33
2018-09-10T01:33:14.571Z,1.53
2018-09-10T01:35:42.123Z,1.70
2018-09-10T01:38:09.696Z,1.50
2018-09-10T01:40:37.236Z,1.60
2018-09-10T01:43:04.819Z,1.53
2018-09-10T01:45:32.390Z,1.77
2018-09-10T01:47:59.956Z,1.50
2018-09-10T01:50:27.479Z,1.77
2018-09-10T01:52:55.049Z,1.65
2018-09-10T01:55:22.586Z,1.50
2018-09-10T01:57:50.136Z,1.50
2018-09-10T02:00:17.694Z,1.80
2018-09-10T02:02:45.237Z,1.77
2018-09-10T02:05:12.827Z,1.80
2018-09-10T02:07:40.393Z,1.80
2018-09-10T02:10:07.915Z,1.70
2018-09-10T02:12:35.476Z,1.83
2018-09-10T02:15:03.000Z,1.70
2018-09-10T02:17:30.555Z,1.80
2018-09-10T02:19:58.101Z,1.60
2018-09-10T02:22:25.683Z,1.60
2018-09-10T02:24:53.294Z,1.60
2018-09-10T02:27:20.895Z,1.73
2018-09-10T02:29:49.588Z,1.70
2018-09-10T02:32:17.112Z,1.60
2018-09-10T02:34:44.696Z,1.63
2018-09-10T02:37:12.224Z,1.33
2018-09-10T02:39:39.818Z,1.57
2018-09-10T02:42:07.330Z,1.60
2018-09-10T02:44:34.912Z,1.67
2018-09-10T02:47:02.422Z,1.70
2018-09-10T02:49:30.269Z,1.70
2018-09-10T02:51:57.827Z,1.40
2018-09-10T02:54:25.327Z,1.57
2018-09-10T02:56:52.904Z,1.80
2018-09-10T02:59:20.488Z,1.47
2018-09-10T03:01:48.152Z,1.70
2018-09-10T03:04:15.720Z,1.60
2018-09-10T03:06:43.285Z,1.50
2018-09-10T03:09:10.798Z,1.50
2018-09-10T03:11:38.355Z,1.67
2018-09-10T03:14:05.903Z,1.60
2018-09-10T03:16:33.478Z,1.40
2018-09-10T03:19:01.077Z,1.67
2018-09-10T03:21:28.765Z,1.60
2018-09-10T03:23:56.465Z,1.57
2018-09-10T03:26:24.136Z,1.50
2018-09-10T03:28:51.651Z,1.60
2018-09-10T03:31:19.250Z,1.53
2018-09-10T03:33:46.786Z,2.20
2018-09-10T03:36:15.181Z,1.83
2018-09-10T03:38:43.871Z,2.10
2018-09-10T03:41:11.446Z,1.50
2018-09-10T03:43:39.013Z,1.80
2018-09-10T03:46:06.547Z,1.70
2018-09-10T03:48:34.127Z,1.60
2018-09-10T03:51:01.688Z,1.63
2018-09-10T03:53:29.267Z,1.60
2018-09-10T03:55:56.815Z,1.70
2018-09-10T03:58:24.384Z,1.60
2018-09-10T04:00:51.950Z,1.43
2018-09-10T04:03:19.519Z,1.57
2018-09-10T04:05:47.027Z,1.70
2018-09-10T04:08:15.213Z,1.37
2018-09-10T04:10:42.961Z,1.30
2018-09-10T04:13:10.484Z,1.70
2018-09-10T04:15:38.072Z,1.70
2018-09-10T04:18:05.615Z,1.67
2018-09-10T04:20:33.211Z,1.90
2018-09-10T04:23:00.928Z,1.60
2018-09-10T04:25:28.525Z,1.50
2018-09-10T04:27:56.084Z,1.90
2018-09-10T04:30:23.672Z,1.70
2018-09-10T04:32:51.257Z,1.77
2018-09-10T04:35:18.783Z,1.60
2018-09-10T04:37:46.350Z,1.90
2018-09-10T04:40:18.303Z,1.80
2018-09-10T04:42:45.873Z,2.00
2018-09-10T04:45:13.398Z,1.90
2018-09-10T04:47:41.015Z,2.00
2018-09-10T04:50:08.533Z,2.20
2018-09-10T04:52:36.071Z,2.20
2018-09-10T04:55:03.650Z,2.27
2018-09-10T04:57:31.206Z,2.13
2018-09-10T04:59:58.799Z,2.20
2018-09-10T05:02:26.356Z,2.20
2018-09-10T05:04:53.924Z,2.30
2018-09-10T05:07:21.448Z,2.43
2018-09-10T05:09:49.147Z,2.83
2018-09-10T05:12:16.553Z,2.90
2018-09-10T05:14:44.140Z,2.40
2018-09-10T05:17:12.627Z,2.67
2018-09-10T05:19:40.217Z,2.80
2018-09-10T05:22:07.786Z,2.73
2018-09-10T05:24:36.597Z,2.40
2018-09-10T05:27:04.147Z,2.70
2018-09-10T05:29:31.725Z,2.80
2018-09-10T05:31:59.272Z,2.60
2018-09-10T05:34:26.864Z,2.40
2018-09-10T05:36:54.515Z,3.10
2018-09-10T05:39:22.045Z,3.20
2018-09-10T05:41:49.868Z,3.00
2018-09-10T05:44:17.330Z,3.17
2018-09-10T05:46:44.915Z,3.77
2018-09-10T05:49:12.494Z,3.50
2018-09-10T05:51:40.193Z,4.05
2018-09-10T05:54:07.717Z,5.40
2018-09-10T05:56:35.285Z,4.93
2018-09-10T05:59:02.841Z,4.97
2018-09-10T06:01:30.433Z,4.67
2018-09-10T06:03:57.978Z,5.93
2018-09-10T06:06:26.745Z,5.20
2018-09-10T06:08:54.329Z,5.10
2018-09-10T06:11:21.860Z,4.83
2018-09-10T06:13:49.394Z,4.87
2018-09-10T06:16:17.006Z,5.50
2018-09-10T06:18:44.706Z,5.40
2018-09-10T06:21:15.826Z,5.87
2018-09-10T06:23:43.355Z,5.83
2018-09-10T06:26:12.974Z,5.80
2018-09-10T06:28:40.509Z,5.30
2018-09-10T06:31:08.061Z,4.77
2018-09-10T06:33:35.660Z,4.90
2018-09-10T06:36:03.178Z,5.97
2018-09-10T06:38:30.767Z,5.57
2018-09-10T06:40:58.322Z,5.60
2018-09-10T06:43:25.901Z,5.90
2018-09-10T06:45:53.463Z,6.17
2018-09-10T06:48:21.049Z,7.53
2018-09-10T06:50:48.614Z,7.40
2018-09-10T06:53:16.191Z,7.33
2018-09-10T06:55:43.949Z,6.63
2018-09-10T06:58:12.600Z,8.37
2018-09-10T07:00:41.401Z,8.73
2018-09-10T07:03:09.073Z,7.70
2018-09-10T07:05:36.868Z,9.17
2018-09-10T07:08:04.582Z,8.80
2018-09-10T07:10:32.168Z,9.63
2018-09-10T07:13:01.704Z,9.63
2018-09-10T07:15:29.758Z,9.77
2018-09-10T07:17:57.354Z,9.90
2018-09-10T07:20:24.989Z,11.02
2018-09-10T07:22:52.708Z,10.80
2018-09-10T07:25:20.303Z,10.10
2018-09-10T07:27:48.001Z,10.77
2018-09-10T07:30:15.634Z,10.17
2018-09-10T07:32:43.182Z,10.50
2018-09-10T07:35:11.001Z,11.27
2018-09-10T07:37:38.742Z,10.50
2018-09-10T07:40:07.424Z,10.77
2018-09-10T07:42:36.124Z,11.47
2018-09-10T07:45:07.222Z,11.30
2018-09-10T07:47:39.980Z,11.70
2018-09-10T07:50:08.584Z,11.47
2018-09-10T07:52:36.099Z,11.90
2018-09-10T07:55:09.107Z,12.30
2018-09-10T07:57:37.763Z,12.97
2018-09-10T08:00:05.571Z,12.67
2018-09-10T08:02:33.268Z,13.70
2018-09-10T08:05:00.844Z,14.27
2018-09-10T08:07:28.396Z,13.25
2018-09-10T08:09:55.941Z,12.93
2018-09-10T08:12:23.530Z,16.20
2018-09-10T08:14:51.073Z,11.77
2018-09-10T08:17:18.609Z,16.07
2018-09-10T08:19:46.193Z,15.60
2018-09-10T08:22:14.812Z,14.67
2018-09-10T08:24:43.501Z,15.32
2018-09-10T08:27:11.022Z,15.63
2018-09-10T08:29:39.663Z,15.83
2018-09-10T08:32:07.425Z,15.57
2018-09-10T08:34:34.951Z,16.27
2018-09-10T08:37:02.493Z,16.63
2018-09-10T08:39:30.103Z,16.43
2018-09-10T08:41:57.699Z,15.20
2018-09-10T08:44:25.269Z,16.10
2018-09-10T08:46:54.005Z,16.67
2018-09-10T08:49:25.782Z,16.03
2018-09-10T08:51:54.473Z,15.90
2018-09-10T08:54:22.333Z,14.43
2018-09-10T08:56:49.814Z,16.47
2018-09-10T08:59:17.457Z,15.80
2018-09-10T09:01:46.161Z,15.50
2018-09-10T09:04:13.744Z,15.17
2018-09-10T09:06:41.307Z,14.83
2018-09-10T09:09:08.922Z,14.57
2018-09-10T09:11:36.587Z,15.20
2018-09-10T09:14:04.396Z,14.63
2018-09-10T09:16:31.943Z,15.03
2018-09-10T09:18:59.596Z,15.93
2018-09-10T09:21:30.693Z,16.13
2018-09-10T09:23:58.299Z,17.03
2018-09-10T09:26:25.922Z,14.68
2018-09-10T09:28:54.583Z,14.40
2018-09-10T09:31:22.151Z,14.33
2018-09-10T09:33:49.866Z,15.77
2018-09-10T09:36:17.453Z,13.30
2018-09-10T09:39:00.065Z,12.80
2018-09-10T09:41:33.011Z,13.60
2018-09-10T09:44:15.454Z,14.10
2018-09-10T09:46:43.031Z,13.43
2018-09-10T09:54:55.560Z,11.87
2018-09-10T09:57:23.275Z,11.27
2018-09-10T09:59:50.863Z,10.50
2018-09-10T10:02:19.434Z,9.20
2018-09-10T10:04:50.930Z,10.10
2018-09-10T10:07:18.461Z,8.70
2018-09-10T10:09:46.156Z,9.13
2018-09-10T10:12:13.813Z,10.20
2018-09-10T10:14:41.359Z,9.57
2018-09-10T10:17:09.139Z,10.40
2018-09-10T10:19:36.681Z,10.00
2018-09-10T10:22:06.199Z,8.70
2018-09-10T10:24:33.981Z,8.30
2018-09-10T10:27:01.602Z,9.60
2018-09-10T10:29:29.155Z,9.13
2018-09-10T10:31:56.734Z,7.10
2018-09-10T10:34:24.399Z,8.37
2018-09-10T10:36:53.074Z,9.87
2018-09-10T10:39:24.033Z,10.20
2018-09-10T10:41:52.649Z,10.60
2018-09-10T10:44:21.287Z,8.27
2018-09-10T10:46:48.869Z,8.03
2018-09-10T10:49:16.490Z,7.00
2018-09-10T10:51:44.345Z,7.00
2018-09-10T10:54:12.296Z,7.60
2018-09-10T10:56:39.856Z,6.90
2018-09-10T10:59:07.555Z,6.17
2018-09-10T11:01:35.149Z,6.20
2018-09-10T11:04:03.750Z,4.93
2018-09-10T11:06:31.510Z,5.30
2018-09-10T11:09:01.164Z,5.17
2018-09-10T11:11:29.076Z,4.80
2018-09-10T11:13:56.646Z,4.50
2018-09-10T11:16:24.461Z,4.97
2018-09-10T11:18:52.249Z,5.00
2018-09-10T11:21:19.849Z,4.83
2018-09-10T11:23:47.399Z,4.57
2018-09-10T11:26:15.279Z,5.13
2018-09-10T11:28:42.834Z,5.10
2018-09-10T11:31:10.363Z,4.43
2018-09-10T11:33:38.061Z,4.67
2018-09-10T11:36:05.646Z,4.03
2018-09-10T11:38:33.408Z,4.60
2018-09-10T11:41:01.013Z,4.23
2018-09-10T11:43:29.542Z,4.43
2018-09-10T11:45:57.281Z,3.50
2018-09-10T11:48:24.872Z,3.60
2018-09-10T11:50:52.408Z,3.30
2018-09-10T11:53:26.409Z,3.70
2018-09-10T11:55:53.921Z,3.33
2018-09-10T11:58:21.839Z,4.20
2018-09-10T12:00:49.536Z,3.70
2018-09-10T12:03:18.159Z,3.53
2018-09-10T12:05:50.164Z,2.90
2018-09-10T12:08:17.806Z,3.60
2018-09-10T12:10:45.347Z,3.00
2018-09-10T12:13:12.910Z,3.27
2018-09-10T12:15:48.035Z,3.30
2018-09-10T12:18:15.561Z,3.50
2018-09-10T12:20:47.864Z,3.30
2018-09-10T12:23:15.446Z,3.93
2018-09-10T12:25:43.951Z,3.10
2018-09-10T12:28:11.522Z,3.00
2018-09-10T12:30:39.066Z,3.43
2018-09-10T12:33:06.667Z,3.30
2018-09-10T12:35:37.549Z,2.90
2018-09-10T12:38:05.078Z,3.47
2018-09-10T12:40:33.718Z,3.10
2018-09-10T12:43:01.253Z,2.87
2018-09-10T12:45:28.809Z,3.17
2018-09-10T12:47:56.423Z,3.43
2018-09-10T12:50:23.974Z,3.47
2018-09-10T12:52:51.569Z,3.20
2018-09-10T12:55:19.090Z,3.17
2018-09-10T12:57:46.671Z,2.63
2018-09-10T13:00:14.219Z,2.80
2018-09-10T13:02:41.772Z,3.07
2018-09-10T13:05:09.314Z,2.70
2018-09-10T13:07:36.911Z,2.73
2018-09-10T13:10:04.423Z,2.90
2018-09-10T13:12:32.008Z,2.87
2018-09-10T13:14:59.537Z,2.80
2018-09-10T13:17:27.050Z,3.03
2018-09-10T13:19:54.629Z,3.03
2018-09-10T13:22:22.175Z,3.00
2018-09-10T13:24:49.746Z,3.03
2018-09-10T13:27:17.264Z,3.10
2018-09-10T13:29:44.914Z,3.13
2018-09-10T13:32:12.429Z,3.13
2018-09-10T13:34:39.986Z,3.03
2018-09-10T13:37:07.572Z,3.00
2018-09-10T13:39:35.157Z,3.30
2018-09-10T13:42:02.670Z,2.70
2018-09-10T13:44:30.286Z,2.90
2018-09-10T13:46:57.850Z,2.60
2018-09-10T13:49:25.632Z,2.70
2018-09-10T13:51:53.174Z,2.77
2018-09-10T13:54:20.712Z,3.10
2018-09-10T13:56:48.278Z,2.57
2018-09-10T13:59:15.830Z,2.70
2018-09-10T14:01:43.500Z,3.10
2018-09-10T14:04:11.025Z,2.50
2018-09-10T14:06:38.616Z,2.50
2018-09-10T14:09:06.130Z,2.57
2018-09-10T14:11:33.701Z,2.23
2018-09-10T14:14:01.272Z,2.30
2018-09-10T14:16:28.849Z,2.80
2018-09-10T14:18:57.612Z,2.37
2018-09-10T14:21:25.206Z,2.20
2018-09-10T14:23:52.793Z,2.47
2018-09-10T14:26:21.511Z,2.30
2018-09-10T14:28:49.377Z,2.20
2018-09-10T14:31:16.998Z,2.67
2018-09-10T14:33:46.639Z,2.40
2018-09-10T14:36:14.381Z,2.20
2018-09-10T14:38:42.129Z,2.83
2018-09-10T14:41:10.742Z,2.63
2018-09-10T14:43:41.409Z,2.60
2018-09-10T14:46:09.153Z,2.70
2018-09-10T14:48:36.695Z,2.30
2018-09-10T14:51:04.295Z,2.03
2018-09-10T14:53:31.878Z,2.73
2018-09-10T14:55:59.448Z,2.30
2018-09-10T14:58:27.097Z,2.62
2018-09-10T15:00:54.799Z,2.57
2018-09-10T15:03:22.360Z,2.50
2018-09-10T15:05:49.966Z,2.80
2018-09-10T15:08:17.452Z,2.50
2018-09-10T15:10:46.200Z,2.47
2018-09-10T15:13:13.801Z,2.43
2018-09-10T15:15:41.367Z,2.80
2018-09-10T15:18:08.952Z,2.43
2018-09-10T15:20:36.659Z,2.83
2018-09-10T15:23:05.783Z,2.58
2018-09-10T15:25:33.346Z,2.73
2018-09-10T15:28:00.926Z,2.97
2018-09-10T15:30:30.449Z,2.40
2018-09-10T15:32:58.012Z,2.73
2018-09-10T15:35:25.628Z,2.63
2018-09-10T15:37:53.215Z,2.60
2018-09-10T15:40:20.947Z,2.78
2018-09-10T15:42:48.478Z,2.63
2018-09-10T15:45:16.078Z,2.30
2018-09-10T15:47:43.611Z,2.70
2018-09-10T15:50:11.184Z,2.40
2018-09-10T15:52:38.744Z,2.43
2018-09-10T15:55:06.318Z,2.50
2018-09-10T15:57:33.996Z,2.40
2018-09-10T16:00:01.578Z,3.00
2018-09-10T16:02:29.143Z,2.75
2018-09-10T16:04:56.711Z,2.40
2018-09-10T16:07:27.559Z,2.45
2018-09-10T16:09:55.139Z,2.43
2018-09-10T16:12:23.610Z,2.15
2018-09-10T16:14:51.606Z,2.50
2018-09-10T16:17:21.412Z,2.10
2018-09-10T16:19:49.027Z,2.27
2018-09-10T16:22:16.686Z,2.47
2018-09-10T16:24:44.299Z,2.73
2018-09-10T16:27:11.869Z,2.70
2018-09-10T16:29:43.294Z,2.30
2018-09-10T16:32:12.945Z,2.40
2018-09-10T16:34:44.181Z,2.30
2018-09-10T16:37:12.776Z,2.27
2018-09-10T16:39:40.327Z,2.47
2018-09-10T16:42:09.841Z,2.40
2018-09-10T16:44:39.415Z,2.30
2018-09-10T16:47:09.042Z,2.90
2018-09-10T16:49:36.615Z,2.63
2018-09-10T16:52:04.204Z,2.47
2018-09-10T16:54:31.879Z,2.60
2018-09-10T16:56:59.468Z,1.92
2018-09-10T16:59:27.068Z,2.07
2018-09-10T17:01:54.750Z,2.73
2018-09-10T17:04:22.306Z,2.35
2018-09-10T17:06:49.892Z,3.07
2018-09-10T17:09:17.505Z,2.20
2018-09-10T17:11:45.065Z,2.10
2018-09-10T17:14:16.086Z,2.57
2018-09-10T17:16:43.613Z,2.40
2018-09-10T17:19:11.174Z,2.40
2018-09-10T17:21:38.776Z,2.70
2018-09-10T17:24:06.350Z,2.60
2018-09-10T17:26:33.946Z,3.00
2018-09-10T17:29:01.481Z,2.50
2018-09-10T17:31:29.010Z,2.50
2018-09-10T17:33:56.588Z,2.23
2018-09-10T17:36:24.169Z,2.70
2018-09-10T17:38:51.831Z,2.47
2018-09-10T17:41:21.411Z,2.50
2018-09-10T17:43:48.979Z,2.27
2018-09-10T17:46:16.510Z,2.80
2018-09-10T17:48:44.137Z,2.30
2018-09-10T17:51:11.687Z,2.00
2018-09-10T17:53:39.280Z,2.75
2018-09-10T17:56:06.810Z,2.73
2018-09-10T17:58:36.414Z,2.50
2018-09-10T18:01:03.968Z,2.40
2018-09-10T18:03:31.555Z,2.93
2018-09-10T18:05:59.150Z,2.70
2018-09-10T18:08:26.677Z,2.87
2018-09-10T18:10:54.270Z,2.80
2018-09-10T18:13:21.890Z,2.50
2018-09-10T18:15:49.511Z,2.60
2018-09-10T18:18:17.096Z,2.50
2018-09-10T18:20:44.678Z,2.90
2018-09-10T18:23:12.232Z,2.60
2018-09-10T18:25:39.764Z,2.80
2018-09-10T18:28:07.327Z,2.47
2018-09-10T18:30:34.843Z,3.00
2018-09-10T18:33:02.421Z,2.53
2018-09-10T18:35:29.964Z,2.90
2018-09-10T18:37:57.538Z,2.73
2018-09-10T18:40:25.089Z,2.90
2018-09-10T18:42:52.709Z,2.87
2018-09-10T18:45:20.278Z,2.80
2018-09-10T18:47:48.047Z,2.60
2018-09-10T18:50:15.603Z,2.87
2018-09-10T18:52:43.114Z,3.10
2018-09-10T18:55:10.700Z,2.90
2018-09-10T18:57:38.212Z,3.07
2018-09-10T19:00:05.768Z,3.10
2018-09-10T19:02:33.355Z,3.40
2018-09-10T19:05:00.958Z,3.10
2018-09-10T19:07:28.526Z,3.40
2018-09-10T19:09:56.207Z,3.40
2018-09-10T19:12:23.717Z,3.35
2018-09-10T19:14:51.257Z,3.20
2018-09-10T19:17:18.859Z,3.20
2018-09-10T19:19:46.460Z,3.23
2018-09-10T19:22:13.992Z,3.27
2018-09-10T19:24:41.568Z,3.33
2018-09-10T19:27:09.109Z,3.30
2018-09-10T19:29:36.649Z,3.00
2018-09-10T19:32:04.202Z,3.40
2018-09-10T19:34:31.715Z,3.17
2018-09-10T19:36:59.273Z,3.17
2018-09-10T19:39:26.838Z,3.33
2018-09-10T19:41:59.209Z,3.23
2018-09-10T19:44:26.771Z,3.30
2018-09-10T19:46:54.319Z,3.30
2018-09-10T19:49:21.904Z,3.30
2018-09-10T19:51:49.429Z,3.50
2018-09-10T19:54:16.996Z,2.97
2018-09-10T19:56:44.574Z,3.33
2018-09-10T19:59:13.330Z,3.40
2018-09-10T20:01:40.872Z,3.40
2018-09-10T20:04:08.465Z,3.43
2018-09-10T20:06:36.015Z,3.23
2018-09-10T20:09:03.745Z,3.43
2018-09-10T20:11:31.288Z,3.30
2018-09-10T20:13:58.974Z,3.43
2018-09-10T20:16:26.487Z,3.50
2018-09-10T20:18:54.187Z,3.47
2018-09-10T20:21:21.764Z,3.50
2018-09-10T20:23:49.289Z,3.20
2018-09-10T20:26:16.876Z,3.60
2018-09-10T20:28:44.433Z,3.50
2018-09-10T20:31:11.979Z,3.30
2018-09-10T20:33:39.558Z,3.70
2018-09-10T20:36:07.062Z,3.67
2018-09-10T20:38:34.614Z,3.63
2018-09-10T20:41:02.131Z,3.50
2018-09-10T20:43:29.702Z,3.30
2018-09-10T20:45:58.359Z,3.30
2018-09-10T20:48:25.951Z,3.73
2018-09-10T20:50:57.854Z,3.87
2018-09-10T20:53:25.449Z,3.53
2018-09-10T20:55:53.025Z,3.90
2018-09-10T20:58:20.544Z,3.35
2018-09-10T21:00:49.259Z,3.13
2018-09-10T21:03:17.042Z,3.03
2018-09-10T21:05:47.875Z,3.10
2018-09-10T21:08:17.536Z,3.17
2018-09-10T21:10:47.118Z,3.60
2018-09-10T21:13:14.632Z,3.70
2018-09-10T21:15:44.183Z,4.00
2018-09-10T21:18:11.752Z,3.97
2018-09-10T21:20:40.299Z,3.60
2018-09-10T21:23:09.953Z,3.17
2018-09-10T21:25:37.900Z,3.60
2018-09-10T21:28:05.984Z,3.37
2018-09-10T21:30:33.623Z,3.45
2018-09-10T21:33:01.305Z,3.67
2018-09-10T21:35:28.965Z,3.33
2018-09-10T21:37:56.623Z,3.50
2018-09-10T21:40:26.174Z,3.62
2018-09-10T21:42:53.874Z,3.43
2018-09-10T21:45:21.430Z,3.50
2018-09-10T21:47:50.078Z,3.70
2018-09-10T21:50:17.601Z,3.60
2018-09-10T21:52:50.211Z,3.43
2018-09-10T21:55:17.751Z,4.00
2018-09-10T21:57:45.308Z,3.50
2018-09-10T22:00:12.907Z,3.53
2018-09-10T22:02:41.600Z,3.90
2018-09-10T22:05:09.126Z,3.63
2018-09-10T22:07:36.698Z,3.60
2018-09-10T22:10:04.275Z,3.73
2018-09-10T22:12:31.815Z,4.07
2018-09-10T22:14:59.405Z,3.53
2018-09-10T22:17:26.955Z,3.90
2018-09-10T22:19:55.643Z,3.87
2018-09-10T22:22:24.498Z,4.37
2018-09-10T22:24:52.089Z,4.27
2018-09-10T22:27:19.858Z,4.20
2018-09-10T22:29:51.351Z,4.50
2018-09-10T22:32:18.873Z,4.30
2018-09-10T22:34:46.404Z,4.37
2018-09-10T22:37:13.969Z,4.50
2018-09-10T22:39:41.516Z,4.30
2018-09-10T22:42:09.081Z,4.17
2018-09-10T22:44:36.626Z,4.40
2018-09-10T22:47:04.190Z,4.20
2018-09-10T22:49:31.873Z,4.30
2018-09-10T22:51:59.431Z,4.75
2018-09-10T22:54:27.024Z,5.12
2018-09-10T22:56:54.551Z,4.70
2018-09-10T22:59:22.156Z,5.37
2018-09-10T23:01:49.757Z,4.65
2018-09-10T23:04:17.302Z,4.97
2018-09-10T23:06:45.258Z,4.40
2018-09-10T23:09:16.602Z,4.20
2018-09-10T23:11:44.483Z,4.60
2018-09-10T23:14:12.469Z,4.83
2018-09-10T23:16:40.518Z,4.50
2018-09-10T23:19:08.191Z,5.20
2018-09-10T23:21:37.999Z,5.30
2018-09-10T23:24:05.553Z,5.60
2018-09-10T23:26:33.120Z,5.37
2018-09-10T23:29:06.303Z,5.47
2018-09-10T23:31:33.971Z,5.80
2018-09-10T23:34:01.568Z,5.37
2018-09-10T23:36:37.604Z,4.60
2018-09-10T23:39:05.119Z,5.47
2018-09-10T23:41:32.696Z,5.57
2018-09-10T23:44:00.211Z,5.00
2018-09-10T23:46:27.799Z,4.63
2018-09-10T23:48:57.306Z,5.07
2018-09-10T23:51:24.910Z,4.93
2018-09-10T23:53:52.516Z,4.87
2018-09-10T23:56:20.090Z,5.00
2018-09-10T23:58:47.660Z,5.03
